sensor_id;sensor_type;location;lat;lon;timestamp;P1;durP1;ratioP1;P2;durP2;ratioP2
12921;SDS011;6528;48.086;16.282;2023-08-21T00:02:06;13.13;;;11.97;;
12921;SDS011;6528;48.086;16.282;2023-08-21T00:04:33;13.27;;;12.30;;
12921;SDS011;6528;48.086;16.282;2023-08-21T00:07:01;12.23;;;11.33;;
12921;SDS011;6528;48.086;16.282;2023-08-21T00:09:29;12.23;;;11.23;;
12921;SDS011;6528;48.086;16.282;2023-08-21T00:11:57;11.90;;;10.90;;
12921;SDS011;6528;48.086;16.282;2023-08-21T00:14:24;13.23;;;12.10;;
12921;SDS011;6528;48.086;16.282;2023-08-21T00:16:52;12.93;;;11.93;;
12921;SDS011;6528;48.086;16.282;2023-08-21T00:19:19;12.23;;;11.33;;
12921;SDS011;6528;48.086;16.282;2023-08-21T00:21:49;14.43;;;11.50;;
12921;SDS011;6528;48.086;16.282;2023-08-21T00:24:17;12.50;;;11.60;;
12921;SDS011;6528;48.086;16.282;2023-08-21T00:26:44;13.00;;;12.00;;
12921;SDS011;6528;48.086;16.282;2023-08-21T00:29:12;13.07;;;11.93;;
12921;SDS011;6528;48.086;16.282;2023-08-21T00:31:39;12.57;;;11.57;;
12921;SDS011;6528;48.086;16.282;2023-08-21T00:34:06;11.80;;;10.90;;
12921;SDS011;6528;48.086;16.282;2023-08-21T00:36:34;12.43;;;11.33;;
12921;SDS011;6528;48.086;16.282;2023-08-21T00:39:01;12.70;;;11.67;;
12921;SDS011;6528;48.086;16.282;2023-08-21T00:41:29;12.70;;;11.60;;
12921;SDS011;6528;48.086;16.282;2023-08-21T00:43:58;12.87;;;11.67;;
12921;SDS011;6528;48.086;16.282;2023-08-21T00:46:25;12.47;;;11.47;;
12921;SDS011;6528;48.086;16.282;2023-08-21T00:48:53;13.13;;;12.13;;
12921;SDS011;6528;48.086;16.282;2023-08-21T00:51:21;13.00;;;11.70;;
12921;SDS011;6528;48.086;16.282;2023-08-21T00:53:49;13.00;;;12.00;;
12921;SDS011;6528;48.086;16.282;2023-08-21T00:56:17;12.63;;;11.63;;
12921;SDS011;6528;48.086;16.282;2023-08-21T00:58:45;12.40;;;11.40;;
12921;SDS011;6528;48.086;16.282;2023-08-21T01:01:13;13.00;;;11.90;;
12921;SDS011;6528;48.086;16.282;2023-08-21T01:03:45;13.43;;;12.23;;
12921;SDS011;6528;48.086;16.282;2023-08-21T01:06:12;12.83;;;11.80;;
12921;SDS011;6528;48.086;16.282;2023-08-21T01:08:46;13.43;;;12.33;;
12921;SDS011;6528;48.086;16.282;2023-08-21T01:15:07;12.30;;;11.30;;
12921;SDS011;6528;48.086;16.282;2023-08-21T01:17:18;13.37;;;12.27;;
12921;SDS011;6528;48.086;16.282;2023-08-21T01:19:47;12.30;;;11.07;;
12921;SDS011;6528;48.086;16.282;2023-08-21T01:22:16;12.50;;;11.60;;
12921;SDS011;6528;48.086;16.282;2023-08-21T01:24:43;12.27;;;11.37;;
12921;SDS011;6528;48.086;16.282;2023-08-21T01:27:12;12.70;;;11.63;;
12921;SDS011;6528;48.086;16.282;2023-08-21T01:29:43;13.10;;;11.93;;
12921;SDS011;6528;48.086;16.282;2023-08-21T01:32:13;13.47;;;12.37;;
12921;SDS011;6528;48.086;16.282;2023-08-21T01:34:46;12.77;;;11.77;;
12921;SDS011;6528;48.086;16.282;2023-08-21T01:37:17;14.23;;;12.97;;
12921;SDS011;6528;48.086;16.282;2023-08-21T01:39:44;13.33;;;12.23;;
12921;SDS011;6528;48.086;16.282;2023-08-21T01:42:13;13.10;;;12.10;;
12921;SDS011;6528;48.086;16.282;2023-08-21T01:44:40;12.23;;;10.97;;
12921;SDS011;6528;48.086;16.282;2023-08-21T01:47:08;14.10;;;13.00;;
12921;SDS011;6528;48.086;16.282;2023-08-21T01:49:35;13.50;;;12.37;;
12921;SDS011;6528;48.086;16.282;2023-08-21T01:52:03;13.20;;;12.07;;
12921;SDS011;6528;48.086;16.282;2023-08-21T01:54:31;12.40;;;11.40;;
12921;SDS011;6528;48.086;16.282;2023-08-21T01:56:59;12.50;;;11.40;;
12921;SDS011;6528;48.086;16.282;2023-08-21T01:59:28;13.60;;;12.40;;
12921;SDS011;6528;48.086;16.282;2023-08-21T02:01:56;12.70;;;11.60;;
12921;SDS011;6528;48.086;16.282;2023-08-21T02:04:24;13.47;;;12.47;;
12921;SDS011;6528;48.086;16.282;2023-08-21T02:06:51;13.30;;;12.30;;
12921;SDS011;6528;48.086;16.282;2023-08-21T02:09:19;13.57;;;12.27;;
12921;SDS011;6528;48.086;16.282;2023-08-21T02:11:48;23.23;;;13.80;;
12921;SDS011;6528;48.086;16.282;2023-08-21T02:14:16;12.50;;;11.30;;
12921;SDS011;6528;48.086;16.282;2023-08-21T02:16:45;13.90;;;12.40;;
12921;SDS011;6528;48.086;16.282;2023-08-21T02:19:12;13.43;;;12.33;;
12921;SDS011;6528;48.086;16.282;2023-08-21T02:21:40;13.60;;;12.30;;
12921;SDS011;6528;48.086;16.282;2023-08-21T02:24:08;13.17;;;12.07;;
12921;SDS011;6528;48.086;16.282;2023-08-21T02:26:35;12.87;;;11.87;;
12921;SDS011;6528;48.086;16.282;2023-08-21T02:29:03;12.97;;;11.97;;
12921;SDS011;6528;48.086;16.282;2023-08-21T02:31:31;13.00;;;11.90;;
12921;SDS011;6528;48.086;16.282;2023-08-21T02:33:59;13.43;;;12.30;;
12921;SDS011;6528;48.086;16.282;2023-08-21T02:36:27;13.43;;;12.37;;
12921;SDS011;6528;48.086;16.282;2023-08-21T02:38:55;13.30;;;12.30;;
12921;SDS011;6528;48.086;16.282;2023-08-21T02:41:22;13.00;;;11.90;;
12921;SDS011;6528;48.086;16.282;2023-08-21T02:43:50;13.27;;;12.10;;
12921;SDS011;6528;48.086;16.282;2023-08-21T02:46:18;12.63;;;11.63;;
12921;SDS011;6528;48.086;16.282;2023-08-21T02:48:46;13.40;;;12.30;;
12921;SDS011;6528;48.086;16.282;2023-08-21T02:51:13;12.57;;;11.57;;
12921;SDS011;6528;48.086;16.282;2023-08-21T02:53:42;13.50;;;12.47;;
12921;SDS011;6528;48.086;16.282;2023-08-21T02:56:11;13.17;;;12.07;;
12921;SDS011;6528;48.086;16.282;2023-08-21T02:58:38;13.20;;;12.17;;
12921;SDS011;6528;48.086;16.282;2023-08-21T03:01:05;13.00;;;12.00;;
12921;SDS011;6528;48.086;16.282;2023-08-21T03:03:34;12.90;;;11.90;;
12921;SDS011;6528;48.086;16.282;2023-08-21T03:06:03;14.30;;;12.43;;
12921;SDS011;6528;48.086;16.282;2023-08-21T03:08:31;12.00;;;11.00;;
12921;SDS011;6528;48.086;16.282;2023-08-21T03:10:58;12.57;;;11.67;;
12921;SDS011;6528;48.086;16.282;2023-08-21T03:13:26;12.70;;;11.50;;
12921;SDS011;6528;48.086;16.282;2023-08-21T03:15:54;13.57;;;12.47;;
12921;SDS011;6528;48.086;16.282;2023-08-21T03:18:22;12.07;;;11.07;;
12921;SDS011;6528;48.086;16.282;2023-08-21T03:20:49;12.80;;;11.80;;
12921;SDS011;6528;48.086;16.282;2023-08-21T03:23:17;13.20;;;12.00;;
12921;SDS011;6528;48.086;16.282;2023-08-21T03:25:45;12.50;;;11.40;;
12921;SDS011;6528;48.086;16.282;2023-08-21T03:28:12;12.60;;;11.63;;
12921;SDS011;6528;48.086;16.282;2023-08-21T03:30:40;12.53;;;11.63;;
12921;SDS011;6528;48.086;16.282;2023-08-21T03:33:07;13.10;;;12.13;;
12921;SDS011;6528;48.086;16.282;2023-08-21T03:35:35;13.27;;;12.17;;
12921;SDS011;6528;48.086;16.282;2023-08-21T03:38:02;13.70;;;12.67;;
12921;SDS011;6528;48.086;16.282;2023-08-21T03:40:30;13.23;;;12.20;;
12921;SDS011;6528;48.086;16.282;2023-08-21T03:42:58;12.20;;;11.20;;
12921;SDS011;6528;48.086;16.282;2023-08-21T03:45:25;13.17;;;12.07;;
12921;SDS011;6528;48.086;16.282;2023-08-21T03:47:54;13.30;;;12.10;;
12921;SDS011;6528;48.086;16.282;2023-08-21T03:50:21;12.17;;;11.27;;
12921;SDS011;6528;48.086;16.282;2023-08-21T03:52:51;13.40;;;12.40;;
12921;SDS011;6528;48.086;16.282;2023-08-21T03:55:19;12.33;;;11.33;;
12921;SDS011;6528;48.086;16.282;2023-08-21T03:57:47;13.70;;;12.60;;
12921;SDS011;6528;48.086;16.282;2023-08-21T04:00:15;12.57;;;11.53;;
12921;SDS011;6528;48.086;16.282;2023-08-21T04:02:42;12.53;;;11.53;;
12921;SDS011;6528;48.086;16.282;2023-08-21T04:05:10;12.47;;;11.47;;
12921;SDS011;6528;48.086;16.282;2023-08-21T04:07:38;12.60;;;11.67;;
12921;SDS011;6528;48.086;16.282;2023-08-21T04:10:06;12.53;;;11.43;;
12921;SDS011;6528;48.086;16.282;2023-08-21T04:12:34;11.97;;;11.07;;
12921;SDS011;6528;48.086;16.282;2023-08-21T04:15:02;12.30;;;11.30;;
12921;SDS011;6528;48.086;16.282;2023-08-21T04:17:32;13.07;;;12.07;;
12921;SDS011;6528;48.086;16.282;2023-08-21T04:20:00;12.90;;;11.83;;
12921;SDS011;6528;48.086;16.282;2023-08-21T04:22:27;13.40;;;12.40;;
12921;SDS011;6528;48.086;16.282;2023-08-21T04:24:55;14.13;;;13.03;;
12921;SDS011;6528;48.086;16.282;2023-08-21T04:27:22;11.67;;;10.77;;
12921;SDS011;6528;48.086;16.282;2023-08-21T04:29:51;12.57;;;11.57;;
12921;SDS011;6528;48.086;16.282;2023-08-21T04:32:21;12.40;;;11.10;;
12921;SDS011;6528;48.086;16.282;2023-08-21T04:34:49;12.57;;;11.67;;
12921;SDS011;6528;48.086;16.282;2023-08-21T04:37:17;12.87;;;11.87;;
12921;SDS011;6528;48.086;16.282;2023-08-21T04:39:44;12.67;;;11.67;;
12921;SDS011;6528;48.086;16.282;2023-08-21T04:42:12;14.20;;;12.97;;
12921;SDS011;6528;48.086;16.282;2023-08-21T04:44:40;13.10;;;12.10;;
12921;SDS011;6528;48.086;16.282;2023-08-21T04:47:25;13.57;;;12.37;;
12921;SDS011;6528;48.086;16.282;2023-08-21T04:49:54;13.50;;;12.30;;
12921;SDS011;6528;48.086;16.282;2023-08-21T04:52:22;13.20;;;12.03;;
12921;SDS011;6528;48.086;16.282;2023-08-21T04:54:50;11.93;;;10.83;;
12921;SDS011;6528;48.086;16.282;2023-08-21T04:57:18;12.80;;;11.70;;
12921;SDS011;6528;48.086;16.282;2023-08-21T04:59:48;12.20;;;11.10;;
12921;SDS011;6528;48.086;16.282;2023-08-21T05:02:15;12.50;;;11.50;;
12921;SDS011;6528;48.086;16.282;2023-08-21T05:04:42;13.77;;;12.33;;
12921;SDS011;6528;48.086;16.282;2023-08-21T05:07:11;12.33;;;11.33;;
12921;SDS011;6528;48.086;16.282;2023-08-21T05:09:39;12.53;;;11.53;;
12921;SDS011;6528;48.086;16.282;2023-08-21T05:12:07;15.13;;;13.43;;
12921;SDS011;6528;48.086;16.282;2023-08-21T05:14:35;14.20;;;13.00;;
12921;SDS011;6528;48.086;16.282;2023-08-21T05:17:03;13.30;;;12.20;;
12921;SDS011;6528;48.086;16.282;2023-08-21T05:19:31;13.90;;;12.43;;
12921;SDS011;6528;48.086;16.282;2023-08-21T05:21:59;14.40;;;13.13;;
12921;SDS011;6528;48.086;16.282;2023-08-21T05:24:27;12.87;;;11.77;;
12921;SDS011;6528;48.086;16.282;2023-08-21T05:26:56;12.53;;;11.53;;
12921;SDS011;6528;48.086;16.282;2023-08-21T05:29:26;13.57;;;12.37;;
12921;SDS011;6528;48.086;16.282;2023-08-21T05:31:55;14.87;;;13.47;;
12921;SDS011;6528;48.086;16.282;2023-08-21T05:34:22;12.63;;;11.63;;
12921;SDS011;6528;48.086;16.282;2023-08-21T05:36:52;13.10;;;11.83;;
12921;SDS011;6528;48.086;16.282;2023-08-21T05:39:21;12.00;;;10.90;;
12921;SDS011;6528;48.086;16.282;2023-08-21T05:41:48;11.30;;;9.93;;
12921;SDS011;6528;48.086;16.282;2023-08-21T05:44:16;11.17;;;10.17;;
12921;SDS011;6528;48.086;16.282;2023-08-21T05:46:44;11.17;;;10.20;;
12921;SDS011;6528;48.086;16.282;2023-08-21T05:49:11;11.70;;;10.80;;
12921;SDS011;6528;48.086;16.282;2023-08-21T05:51:39;11.40;;;10.37;;
12921;SDS011;6528;48.086;16.282;2023-08-21T05:54:07;14.97;;;11.60;;
12921;SDS011;6528;48.086;16.282;2023-08-21T05:56:35;18.87;;;12.00;;
12921;SDS011;6528;48.086;16.282;2023-08-21T05:59:03;15.10;;;11.43;;
12921;SDS011;6528;48.086;16.282;2023-08-21T06:01:30;19.10;;;11.53;;
12921;SDS011;6528;48.086;16.282;2023-08-21T06:03:58;12.73;;;11.60;;
12921;SDS011;6528;48.086;16.282;2023-08-21T06:06:27;11.83;;;10.63;;
12921;SDS011;6528;48.086;16.282;2023-08-21T06:08:55;14.23;;;11.13;;
12921;SDS011;6528;48.086;16.282;2023-08-21T06:11:23;13.47;;;11.50;;
12921;SDS011;6528;48.086;16.282;2023-08-21T06:13:50;12.27;;;11.07;;
12921;SDS011;6528;48.086;16.282;2023-08-21T06:16:18;11.57;;;10.57;;
12921;SDS011;6528;48.086;16.282;2023-08-21T06:18:46;11.60;;;10.17;;
12921;SDS011;6528;48.086;16.282;2023-08-21T06:21:14;12.63;;;10.30;;
12921;SDS011;6528;48.086;16.282;2023-08-21T06:23:42;12.47;;;10.10;;
12921;SDS011;6528;48.086;16.282;2023-08-21T06:26:10;12.10;;;10.90;;
12921;SDS011;6528;48.086;16.282;2023-08-21T06:28:37;11.17;;;10.07;;
12921;SDS011;6528;48.086;16.282;2023-08-21T06:31:05;11.00;;;9.83;;
12921;SDS011;6528;48.086;16.282;2023-08-21T06:33:36;10.57;;;9.60;;
12921;SDS011;6528;48.086;16.282;2023-08-21T06:36:03;11.77;;;9.87;;
12921;SDS011;6528;48.086;16.282;2023-08-21T06:38:32;11.97;;;9.50;;
12921;SDS011;6528;48.086;16.282;2023-08-21T06:41:02;10.70;;;9.60;;
12921;SDS011;6528;48.086;16.282;2023-08-21T06:43:38;10.17;;;9.10;;
12921;SDS011;6528;48.086;16.282;2023-08-21T06:46:10;11.80;;;10.67;;
12921;SDS011;6528;48.086;16.282;2023-08-21T06:48:39;11.03;;;9.37;;
12921;SDS011;6528;48.086;16.282;2023-08-21T06:51:10;10.83;;;9.83;;
12921;SDS011;6528;48.086;16.282;2023-08-21T06:53:42;10.60;;;9.67;;
12921;SDS011;6528;48.086;16.282;2023-08-21T06:56:10;12.30;;;9.57;;
12921;SDS011;6528;48.086;16.282;2023-08-21T06:58:37;10.30;;;9.40;;
12921;SDS011;6528;48.086;16.282;2023-08-21T07:01:06;12.17;;;9.20;;
12921;SDS011;6528;48.086;16.282;2023-08-21T07:03:33;10.50;;;9.50;;
12921;SDS011;6528;48.086;16.282;2023-08-21T07:06:02;9.60;;;8.73;;
12921;SDS011;6528;48.086;16.282;2023-08-21T07:08:29;9.87;;;8.97;;
12921;SDS011;6528;48.086;16.282;2023-08-21T07:10:57;10.83;;;9.83;;
12921;SDS011;6528;48.086;16.282;2023-08-21T07:13:28;11.43;;;10.10;;
12921;SDS011;6528;48.086;16.282;2023-08-21T07:15:56;11.33;;;10.27;;
12921;SDS011;6528;48.086;16.282;2023-08-21T07:18:25;10.60;;;9.67;;
12921;SDS011;6528;48.086;16.282;2023-08-21T07:20:52;10.10;;;9.13;;
12921;SDS011;6528;48.086;16.282;2023-08-21T07:23:20;10.50;;;9.70;;
12921;SDS011;6528;48.086;16.282;2023-08-21T07:25:48;10.77;;;9.77;;
12921;SDS011;6528;48.086;16.282;2023-08-21T07:28:17;10.30;;;9.40;;
12921;SDS011;6528;48.086;16.282;2023-08-21T07:30:45;10.37;;;9.43;;
12921;SDS011;6528;48.086;16.282;2023-08-21T07:33:13;10.50;;;9.50;;
12921;SDS011;6528;48.086;16.282;2023-08-21T07:35:40;10.20;;;9.40;;
12921;SDS011;6528;48.086;16.282;2023-08-21T07:38:08;9.10;;;8.30;;
12921;SDS011;6528;48.086;16.282;2023-08-21T07:40:35;9.57;;;8.83;;
12921;SDS011;6528;48.086;16.282;2023-08-21T07:43:03;10.27;;;9.20;;
12921;SDS011;6528;48.086;16.282;2023-08-21T07:45:31;9.07;;;8.37;;
12921;SDS011;6528;48.086;16.282;2023-08-21T07:47:58;9.73;;;8.90;;
12921;SDS011;6528;48.086;16.282;2023-08-21T07:50:39;9.40;;;8.60;;
12921;SDS011;6528;48.086;16.282;2023-08-21T07:53:07;9.73;;;8.83;;
12921;SDS011;6528;48.086;16.282;2023-08-21T07:55:34;8.90;;;8.20;;
12921;SDS011;6528;48.086;16.282;2023-08-21T07:58:03;9.50;;;8.60;;
12921;SDS011;6528;48.086;16.282;2023-08-21T08:00:31;9.80;;;8.80;;
12921;SDS011;6528;48.086;16.282;2023-08-21T08:03:00;8.97;;;8.17;;
12921;SDS011;6528;48.086;16.282;2023-08-21T08:05:27;9.00;;;8.30;;
12921;SDS011;6528;48.086;16.282;2023-08-21T08:07:57;9.20;;;8.30;;
12921;SDS011;6528;48.086;16.282;2023-08-21T08:10:24;9.70;;;8.90;;
12921;SDS011;6528;48.086;16.282;2023-08-21T08:12:52;10.30;;;9.50;;
12921;SDS011;6528;48.086;16.282;2023-08-21T08:15:21;10.17;;;9.37;;
12921;SDS011;6528;48.086;16.282;2023-08-21T08:17:50;9.17;;;8.33;;
12921;SDS011;6528;48.086;16.282;2023-08-21T08:20:20;9.10;;;8.40;;
12921;SDS011;6528;48.086;16.282;2023-08-21T08:22:48;8.77;;;8.10;;
12921;SDS011;6528;48.086;16.282;2023-08-21T08:25:17;8.47;;;7.87;;
12921;SDS011;6528;48.086;16.282;2023-08-21T08:27:45;9.57;;;8.87;;
12921;SDS011;6528;48.086;16.282;2023-08-21T08:30:13;8.87;;;8.07;;
12921;SDS011;6528;48.086;16.282;2023-08-21T08:32:43;9.43;;;8.73;;
12921;SDS011;6528;48.086;16.282;2023-08-21T08:35:13;7.30;;;6.80;;
12921;SDS011;6528;48.086;16.282;2023-08-21T08:37:41;9.00;;;8.30;;
12921;SDS011;6528;48.086;16.282;2023-08-21T08:40:10;8.67;;;7.97;;
12921;SDS011;6528;48.086;16.282;2023-08-21T08:42:38;9.20;;;8.40;;
12921;SDS011;6528;48.086;16.282;2023-08-21T08:45:06;8.07;;;7.57;;
12921;SDS011;6528;48.086;16.282;2023-08-21T08:47:35;8.60;;;7.90;;
12921;SDS011;6528;48.086;16.282;2023-08-21T08:50:04;7.97;;;7.27;;
12921;SDS011;6528;48.086;16.282;2023-08-21T08:52:37;9.30;;;8.60;;
12921;SDS011;6528;48.086;16.282;2023-08-21T08:55:07;8.60;;;7.83;;
12921;SDS011;6528;48.086;16.282;2023-08-21T08:57:35;8.50;;;7.80;;
12921;SDS011;6528;48.086;16.282;2023-08-21T09:00:03;9.03;;;8.23;;
12921;SDS011;6528;48.086;16.282;2023-08-21T09:02:31;8.03;;;7.40;;
12921;SDS011;6528;48.086;16.282;2023-08-21T09:05:00;7.93;;;7.40;;
12921;SDS011;6528;48.086;16.282;2023-08-21T09:07:28;8.23;;;7.53;;
12921;SDS011;6528;48.086;16.282;2023-08-21T09:09:56;7.67;;;7.03;;
12921;SDS011;6528;48.086;16.282;2023-08-21T09:12:24;8.83;;;8.03;;
12921;SDS011;6528;48.086;16.282;2023-08-21T09:14:52;8.00;;;7.40;;
12921;SDS011;6528;48.086;16.282;2023-08-21T09:17:20;8.20;;;7.60;;
12921;SDS011;6528;48.086;16.282;2023-08-21T09:19:48;7.80;;;7.20;;
12921;SDS011;6528;48.086;16.282;2023-08-21T09:22:16;8.60;;;7.90;;
12921;SDS011;6528;48.086;16.282;2023-08-21T09:25:00;7.73;;;7.13;;
12921;SDS011;6528;48.086;16.282;2023-08-21T09:27:32;8.47;;;7.73;;
12921;SDS011;6528;48.086;16.282;2023-08-21T09:30:05;8.10;;;7.50;;
12921;SDS011;6528;48.086;16.282;2023-08-21T09:32:57;7.20;;;6.70;;
12921;SDS011;6528;48.086;16.282;2023-08-21T09:35:27;7.40;;;6.80;;
12921;SDS011;6528;48.086;16.282;2023-08-21T09:37:54;8.23;;;7.53;;
12921;SDS011;6528;48.086;16.282;2023-08-21T09:40:22;7.30;;;6.80;;
12921;SDS011;6528;48.086;16.282;2023-08-21T09:42:53;7.93;;;7.23;;
12921;SDS011;6528;48.086;16.282;2023-08-21T09:45:23;7.50;;;7.00;;
12921;SDS011;6528;48.086;16.282;2023-08-21T09:47:51;7.30;;;6.80;;
12921;SDS011;6528;48.086;16.282;2023-08-21T09:50:21;8.10;;;7.50;;
12921;SDS011;6528;48.086;16.282;2023-08-21T09:52:49;8.00;;;7.30;;
12921;SDS011;6528;48.086;16.282;2023-08-21T09:55:18;8.13;;;7.53;;
12921;SDS011;6528;48.086;16.282;2023-08-21T09:57:46;8.27;;;7.47;;
12921;SDS011;6528;48.086;16.282;2023-08-21T10:00:17;7.27;;;6.70;;
12921;SDS011;6528;48.086;16.282;2023-08-21T10:02:50;7.73;;;7.13;;
12921;SDS011;6528;48.086;16.282;2023-08-21T10:05:19;6.83;;;6.23;;
12921;SDS011;6528;48.086;16.282;2023-08-21T10:07:48;7.80;;;7.30;;
12921;SDS011;6528;48.086;16.282;2023-08-21T10:10:17;7.07;;;6.57;;
12921;SDS011;6528;48.086;16.282;2023-08-21T10:12:45;7.40;;;6.90;;
12921;SDS011;6528;48.086;16.282;2023-08-21T10:15:15;7.30;;;6.80;;
12921;SDS011;6528;48.086;16.282;2023-08-21T10:17:43;7.90;;;7.30;;
12921;SDS011;6528;48.086;16.282;2023-08-21T10:20:11;7.70;;;7.10;;
12921;SDS011;6528;48.086;16.282;2023-08-21T10:22:43;6.63;;;6.23;;
12921;SDS011;6528;48.086;16.282;2023-08-21T10:25:20;7.37;;;6.80;;
12921;SDS011;6528;48.086;16.282;2023-08-21T10:27:50;6.97;;;6.47;;
12921;SDS011;6528;48.086;16.282;2023-08-21T10:30:30;7.20;;;6.70;;
12921;SDS011;6528;48.086;16.282;2023-08-21T10:32:58;7.20;;;6.60;;
12921;SDS011;6528;48.086;16.282;2023-08-21T10:35:30;7.30;;;6.80;;
12921;SDS011;6528;48.086;16.282;2023-08-21T10:41:18;7.73;;;7.10;;
12921;SDS011;6528;48.086;16.282;2023-08-21T10:43:38;7.47;;;6.93;;
12921;SDS011;6528;48.086;16.282;2023-08-21T10:46:12;6.93;;;6.33;;
12921;SDS011;6528;48.086;16.282;2023-08-21T10:48:42;8.20;;;7.50;;
12921;SDS011;6528;48.086;16.282;2023-08-21T10:51:09;6.67;;;6.17;;
12921;SDS011;6528;48.086;16.282;2023-08-21T10:53:40;7.37;;;6.87;;
12921;SDS011;6528;48.086;16.282;2023-08-21T10:56:09;7.00;;;6.50;;
12921;SDS011;6528;48.086;16.282;2023-08-21T10:58:43;7.10;;;6.50;;
12921;SDS011;6528;48.086;16.282;2023-08-21T11:01:14;6.60;;;6.10;;
12921;SDS011;6528;48.086;16.282;2023-08-21T11:03:46;6.90;;;6.40;;
12921;SDS011;6528;48.086;16.282;2023-08-21T11:06:18;6.80;;;6.30;;
12921;SDS011;6528;48.086;16.282;2023-08-21T11:08:46;6.30;;;5.90;;
12921;SDS011;6528;48.086;16.282;2023-08-21T11:11:13;5.80;;;5.50;;
12921;SDS011;6528;48.086;16.282;2023-08-21T11:13:51;6.47;;;6.03;;
12921;SDS011;6528;48.086;16.282;2023-08-21T11:16:20;6.73;;;6.23;;
12921;SDS011;6528;48.086;16.282;2023-08-21T11:18:47;6.53;;;6.13;;
12921;SDS011;6528;48.086;16.282;2023-08-21T11:21:15;7.10;;;6.60;;
12921;SDS011;6528;48.086;16.282;2023-08-21T11:23:43;7.00;;;6.50;;
12921;SDS011;6528;48.086;16.282;2023-08-21T11:26:11;6.33;;;5.83;;
12921;SDS011;6528;48.086;16.282;2023-08-21T11:28:41;6.77;;;6.27;;
12921;SDS011;6528;48.086;16.282;2023-08-21T11:31:10;6.70;;;6.20;;
12921;SDS011;6528;48.086;16.282;2023-08-21T11:33:41;6.40;;;5.90;;
12921;SDS011;6528;48.086;16.282;2023-08-21T11:36:16;6.57;;;5.97;;
12921;SDS011;6528;48.086;16.282;2023-08-21T11:38:57;6.27;;;5.77;;
12921;SDS011;6528;48.086;16.282;2023-08-21T11:41:26;6.27;;;5.87;;
12921;SDS011;6528;48.086;16.282;2023-08-21T11:43:57;6.20;;;5.70;;
12921;SDS011;6528;48.086;16.282;2023-08-21T11:46:30;6.00;;;5.60;;
12921;SDS011;6528;48.086;16.282;2023-08-21T11:48:58;6.03;;;5.63;;
12921;SDS011;6528;48.086;16.282;2023-08-21T11:51:29;5.67;;;5.33;;
12921;SDS011;6528;48.086;16.282;2023-08-21T11:54:07;7.00;;;6.50;;
12921;SDS011;6528;48.086;16.282;2023-08-21T11:56:36;5.77;;;5.37;;
12921;SDS011;6528;48.086;16.282;2023-08-21T11:59:05;5.87;;;5.47;;
12921;SDS011;6528;48.086;16.282;2023-08-21T12:01:34;6.90;;;6.40;;
12921;SDS011;6528;48.086;16.282;2023-08-21T12:04:13;5.93;;;5.53;;
12921;SDS011;6528;48.086;16.282;2023-08-21T12:06:45;6.10;;;5.70;;
12921;SDS011;6528;48.086;16.282;2023-08-21T12:09:13;6.77;;;6.27;;
12921;SDS011;6528;48.086;16.282;2023-08-21T12:11:40;5.90;;;5.50;;
12921;SDS011;6528;48.086;16.282;2023-08-21T12:14:08;6.73;;;6.27;;
12921;SDS011;6528;48.086;16.282;2023-08-21T12:16:37;5.87;;;5.47;;
12921;SDS011;6528;48.086;16.282;2023-08-21T12:19:04;6.70;;;6.30;;
12921;SDS011;6528;48.086;16.282;2023-08-21T12:21:36;6.20;;;5.80;;
12921;SDS011;6528;48.086;16.282;2023-08-21T12:24:04;6.07;;;5.73;;
12921;SDS011;6528;48.086;16.282;2023-08-21T12:26:33;6.20;;;5.80;;
12921;SDS011;6528;48.086;16.282;2023-08-21T12:29:14;5.90;;;5.50;;
12921;SDS011;6528;48.086;16.282;2023-08-21T12:31:41;6.37;;;5.97;;
12921;SDS011;6528;48.086;16.282;2023-08-21T12:34:10;6.10;;;5.70;;
12921;SDS011;6528;48.086;16.282;2023-08-21T12:36:38;6.00;;;5.50;;
12921;SDS011;6528;48.086;16.282;2023-08-21T12:39:06;5.90;;;5.50;;
12921;SDS011;6528;48.086;16.282;2023-08-21T12:41:34;6.20;;;5.80;;
12921;SDS011;6528;48.086;16.282;2023-08-21T12:44:01;5.73;;;5.33;;
12921;SDS011;6528;48.086;16.282;2023-08-21T12:46:36;6.37;;;5.97;;
12921;SDS011;6528;48.086;16.282;2023-08-21T12:49:03;6.40;;;5.90;;
12921;SDS011;6528;48.086;16.282;2023-08-21T12:51:31;6.13;;;5.70;;
12921;SDS011;6528;48.086;16.282;2023-08-21T12:53:59;5.97;;;5.57;;
12921;SDS011;6528;48.086;16.282;2023-08-21T12:56:26;5.60;;;5.20;;
12921;SDS011;6528;48.086;16.282;2023-08-21T12:58:54;6.33;;;5.93;;
12921;SDS011;6528;48.086;16.282;2023-08-21T13:01:22;5.80;;;5.40;;
12921;SDS011;6528;48.086;16.282;2023-08-21T13:03:49;5.20;;;4.90;;
12921;SDS011;6528;48.086;16.282;2023-08-21T13:06:18;5.50;;;5.10;;
12921;SDS011;6528;48.086;16.282;2023-08-21T13:08:46;5.90;;;5.43;;
12921;SDS011;6528;48.086;16.282;2023-08-21T13:11:13;6.07;;;5.57;;
12921;SDS011;6528;48.086;16.282;2023-08-21T13:13:42;6.03;;;5.63;;
12921;SDS011;6528;48.086;16.282;2023-08-21T13:16:10;6.13;;;5.73;;
12921;SDS011;6528;48.086;16.282;2023-08-21T13:18:38;6.00;;;5.60;;
12921;SDS011;6528;48.086;16.282;2023-08-21T13:21:05;6.77;;;6.27;;
12921;SDS011;6528;48.086;16.282;2023-08-21T13:23:34;5.87;;;5.47;;
12921;SDS011;6528;48.086;16.282;2023-08-21T13:26:03;6.03;;;5.63;;
12921;SDS011;6528;48.086;16.282;2023-08-21T13:28:31;6.20;;;5.80;;
12921;SDS011;6528;48.086;16.282;2023-08-21T13:30:59;5.77;;;5.37;;
12921;SDS011;6528;48.086;16.282;2023-08-21T13:33:26;5.77;;;5.37;;
12921;SDS011;6528;48.086;16.282;2023-08-21T13:35:54;6.30;;;5.90;;
12921;SDS011;6528;48.086;16.282;2023-08-21T13:38:21;5.40;;;5.00;;
12921;SDS011;6528;48.086;16.282;2023-08-21T13:40:49;6.10;;;5.70;;
12921;SDS011;6528;48.086;16.282;2023-08-21T13:43:16;5.40;;;5.00;;
12921;SDS011;6528;48.086;16.282;2023-08-21T13:45:46;5.23;;;4.83;;
12921;SDS011;6528;48.086;16.282;2023-08-21T13:48:15;5.33;;;5.03;;
12921;SDS011;6528;48.086;16.282;2023-08-21T13:50:43;5.17;;;4.87;;
12921;SDS011;6528;48.086;16.282;2023-08-21T13:53:10;5.03;;;4.73;;
12921;SDS011;6528;48.086;16.282;2023-08-21T13:55:38;5.33;;;5.03;;
12921;SDS011;6528;48.086;16.282;2023-08-21T13:58:07;5.50;;;5.20;;
12921;SDS011;6528;48.086;16.282;2023-08-21T14:00:36;5.40;;;5.10;;
12921;SDS011;6528;48.086;16.282;2023-08-21T14:03:04;5.53;;;5.23;;
12921;SDS011;6528;48.086;16.282;2023-08-21T14:05:32;5.60;;;5.30;;
12921;SDS011;6528;48.086;16.282;2023-08-21T14:08:00;5.53;;;5.20;;
12921;SDS011;6528;48.086;16.282;2023-08-21T14:10:27;5.23;;;4.87;;
12921;SDS011;6528;48.086;16.282;2023-08-21T14:12:58;5.40;;;5.10;;
12921;SDS011;6528;48.086;16.282;2023-08-21T14:15:26;5.33;;;4.93;;
12921;SDS011;6528;48.086;16.282;2023-08-21T14:17:54;5.20;;;4.90;;
12921;SDS011;6528;48.086;16.282;2023-08-21T14:20:23;5.03;;;4.73;;
12921;SDS011;6528;48.086;16.282;2023-08-21T14:22:51;5.40;;;5.10;;
12921;SDS011;6528;48.086;16.282;2023-08-21T14:25:18;5.47;;;5.17;;
12921;SDS011;6528;48.086;16.282;2023-08-21T14:27:47;5.53;;;5.13;;
12921;SDS011;6528;48.086;16.282;2023-08-21T14:30:15;5.53;;;5.23;;
12921;SDS011;6528;48.086;16.282;2023-08-21T14:32:43;5.30;;;4.90;;
12921;SDS011;6528;48.086;16.282;2023-08-21T14:35:11;5.80;;;5.43;;
12921;SDS011;6528;48.086;16.282;2023-08-21T14:37:39;4.87;;;4.57;;
12921;SDS011;6528;48.086;16.282;2023-08-21T14:40:06;5.00;;;4.70;;
12921;SDS011;6528;48.086;16.282;2023-08-21T14:42:35;5.10;;;4.80;;
12921;SDS011;6528;48.086;16.282;2023-08-21T14:45:04;5.83;;;5.43;;
12921;SDS011;6528;48.086;16.282;2023-08-21T14:47:32;5.30;;;5.00;;
12921;SDS011;6528;48.086;16.282;2023-08-21T14:50:01;5.33;;;5.00;;
12921;SDS011;6528;48.086;16.282;2023-08-21T14:52:28;5.60;;;5.23;;